sensor_id;sensor_type;location;lat;lon;timestamp;P1;durP1;ratioP1;P2;durP2;ratioP2
20140;SDS011;10231;47.702;9.826;2024-02-23T00:01:31;0.30;;;0.30;;
20140;SDS011;10231;47.702;9.826;2024-02-23T00:03:57;0.20;;;0.20;;
20140;SDS011;10231;47.702;9.826;2024-02-23T00:06:22;0.37;;;0.20;;
20140;SDS011;10231;47.702;9.826;2024-02-23T00:08:52;0.57;;;0.20;;
20140;SDS011;10231;47.702;9.826;2024-02-23T00:11:19;0.40;;;0.40;;
20140;SDS011;10231;47.702;9.826;2024-02-23T00:13:45;0.30;;;0.30;;
20140;SDS011;10231;47.702;9.826;2024-02-23T00:16:11;0.40;;;0.30;;
20140;SDS011;10231;47.702;9.826;2024-02-23T00:18:36;0.20;;;0.20;;
20140;SDS011;10231;47.702;9.826;2024-02-23T00:21:03;0.40;;;0.23;;
20140;SDS011;10231;47.702;9.826;2024-02-23T00:23:28;0.20;;;0.20;;
20140;SDS011;10231;47.702;9.826;2024-02-23T00:25:54;0.30;;;0.30;;
20140;SDS011;10231;47.702;9.826;2024-02-23T00:28:19;0.13;;;0.13;;
20140;SDS011;10231;47.702;9.826;2024-02-23T00:30:45;0.10;;;0.10;;
20140;SDS011;10231;47.702;9.826;2024-02-23T00:33:10;0.20;;;0.20;;
20140;SDS011;10231;47.702;9.826;2024-02-23T00:35:36;0.20;;;0.20;;
20140;SDS011;10231;47.702;9.826;2024-02-23T00:38:01;0.10;;;0.10;;
20140;SDS011;10231;47.702;9.826;2024-02-23T00:40:27;0.10;;;0.10;;
20140;SDS011;10231;47.702;9.826;2024-02-23T00:42:53;0.20;;;0.20;;
20140;SDS011;10231;47.702;9.826;2024-02-23T00:45:18;0.67;;;0.10;;
20140;SDS011;10231;47.702;9.826;2024-02-23T00:47:44;0.20;;;0.10;;
20140;SDS011;10231;47.702;9.826;2024-02-23T00:50:11;0.10;;;0.10;;
20140;SDS011;10231;47.702;9.826;2024-02-23T00:52:38;0.27;;;0.27;;
20140;SDS011;10231;47.702;9.826;2024-02-23T00:55:03;0.10;;;0.10;;
20140;SDS011;10231;47.702;9.826;2024-02-23T00:57:29;0.20;;;0.20;;
20140;SDS011;10231;47.702;9.826;2024-02-23T00:59:58;0.10;;;0.10;;
20140;SDS011;10231;47.702;9.826;2024-02-23T01:02:23;0.20;;;0.20;;
20140;SDS011;10231;47.702;9.826;2024-02-23T01:04:49;0.10;;;0.10;;
20140;SDS011;10231;47.702;9.826;2024-02-23T01:07:15;0.10;;;0.10;;
20140;SDS011;10231;47.702;9.826;2024-02-23T01:09:40;0.20;;;0.20;;
20140;SDS011;10231;47.702;9.826;2024-02-23T01:12:06;0.20;;;0.20;;
20140;SDS011;10231;47.702;9.826;2024-02-23T01:14:31;0.10;;;0.10;;
20140;SDS011;10231;47.702;9.826;2024-02-23T01:16:57;0.30;;;0.10;;
20140;SDS011;10231;47.702;9.826;2024-02-23T01:19:22;0.10;;;0.10;;
20140;SDS011;10231;47.702;9.826;2024-02-23T01:21:48;0.10;;;0.10;;
20140;SDS011;10231;47.702;9.826;2024-02-23T01:24:21;0.20;;;0.20;;
20140;SDS011;10231;47.702;9.826;2024-02-23T01:26:46;0.10;;;0.10;;
20140;SDS011;10231;47.702;9.826;2024-02-23T01:29:12;0.20;;;0.20;;
20140;SDS011;10231;47.702;9.826;2024-02-23T01:31:37;0.10;;;0.10;;
20140;SDS011;10231;47.702;9.826;2024-02-23T01:34:03;0.20;;;0.20;;
20140;SDS011;10231;47.702;9.826;2024-02-23T01:36:29;0.50;;;0.17;;
20140;SDS011;10231;47.702;9.826;2024-02-23T01:38:54;0.20;;;0.20;;
20140;SDS011;10231;47.702;9.826;2024-02-23T01:41:20;0.10;;;0.10;;
20140;SDS011;10231;47.702;9.826;2024-02-23T01:43:45;0.53;;;0.20;;
20140;SDS011;10231;47.702;9.826;2024-02-23T01:46:11;0.20;;;0.20;;
20140;SDS011;10231;47.702;9.826;2024-02-23T01:48:36;1.10;;;0.20;;
20140;SDS011;10231;47.702;9.826;2024-02-23T01:51:02;0.20;;;0.20;;
20140;SDS011;10231;47.702;9.826;2024-02-23T01:53:28;0.30;;;0.30;;
20140;SDS011;10231;47.702;9.826;2024-02-23T01:55:54;0.20;;;0.20;;
20140;SDS011;10231;47.702;9.826;2024-02-23T01:58:20;0.10;;;0.10;;
20140;SDS011;10231;47.702;9.826;2024-02-23T02:00:46;0.10;;;0.10;;
20140;SDS011;10231;47.702;9.826;2024-02-23T02:03:12;0.20;;;0.20;;
20140;SDS011;10231;47.702;9.826;2024-02-23T02:05:37;0.20;;;0.20;;
20140;SDS011;10231;47.702;9.826;2024-02-23T02:08:03;0.10;;;0.10;;
20140;SDS011;10231;47.702;9.826;2024-02-23T02:10:30;0.20;;;0.20;;
20140;SDS011;10231;47.702;9.826;2024-02-23T02:13:01;0.20;;;0.20;;
20140;SDS011;10231;47.702;9.826;2024-02-23T02:15:28;0.13;;;0.13;;
20140;SDS011;10231;47.702;9.826;2024-02-23T02:17:53;0.20;;;0.20;;
20140;SDS011;10231;47.702;9.826;2024-02-23T02:20:19;0.20;;;0.20;;
20140;SDS011;10231;47.702;9.826;2024-02-23T02:22:50;0.30;;;0.30;;
20140;SDS011;10231;47.702;9.826;2024-02-23T02:25:16;0.30;;;0.30;;
20140;SDS011;10231;47.702;9.826;2024-02-23T02:27:41;0.20;;;0.20;;
20140;SDS011;10231;47.702;9.826;2024-02-23T02:30:07;1.00;;;0.30;;
20140;SDS011;10231;47.702;9.826;2024-02-23T02:32:33;0.30;;;0.30;;
20140;SDS011;10231;47.702;9.826;2024-02-23T02:35:00;0.77;;;0.20;;
20140;SDS011;10231;47.702;9.826;2024-02-23T02:37:26;0.27;;;0.27;;
20140;SDS011;10231;47.702;9.826;2024-02-23T02:39:51;0.20;;;0.20;;
20140;SDS011;10231;47.702;9.826;2024-02-23T02:42:17;0.40;;;0.30;;
20140;SDS011;10231;47.702;9.826;2024-02-23T02:44:42;0.30;;;0.30;;
20140;SDS011;10231;47.702;9.826;2024-02-23T02:47:08;0.60;;;0.27;;
20140;SDS011;10231;47.702;9.826;2024-02-23T02:49:34;0.30;;;0.30;;
20140;SDS011;10231;47.702;9.826;2024-02-23T02:51:59;0.53;;;0.30;;
20140;SDS011;10231;47.702;9.826;2024-02-23T02:54:25;0.73;;;0.33;;
20140;SDS011;10231;47.702;9.826;2024-02-23T02:56:50;1.87;;;0.37;;
20140;SDS011;10231;47.702;9.826;2024-02-23T02:59:19;0.50;;;0.20;;
20140;SDS011;10231;47.702;9.826;2024-02-23T03:01:45;1.20;;;0.43;;
20140;SDS011;10231;47.702;9.826;2024-02-23T03:04:12;0.50;;;0.40;;
20140;SDS011;10231;47.702;9.826;2024-02-23T03:06:37;1.47;;;0.30;;
20140;SDS011;10231;47.702;9.826;2024-02-23T03:09:03;1.90;;;0.30;;
20140;SDS011;10231;47.702;9.826;2024-02-23T03:11:29;0.40;;;0.40;;
20140;SDS011;10231;47.702;9.826;2024-02-23T03:13:55;0.40;;;0.30;;
20140;SDS011;10231;47.702;9.826;2024-02-23T03:16:21;2.23;;;0.40;;
20140;SDS011;10231;47.702;9.826;2024-02-23T03:18:48;2.00;;;0.43;;
20140;SDS011;10231;47.702;9.826;2024-02-23T03:21:14;0.57;;;0.30;;
20140;SDS011;10231;47.702;9.826;2024-02-23T03:23:40;0.67;;;0.67;;
20140;SDS011;10231;47.702;9.826;2024-02-23T03:26:07;0.47;;;0.40;;
20140;SDS011;10231;47.702;9.826;2024-02-23T03:28:33;0.40;;;0.40;;
20140;SDS011;10231;47.702;9.826;2024-02-23T03:30:59;1.30;;;0.40;;
20140;SDS011;10231;47.702;9.826;2024-02-23T03:33:25;0.60;;;0.30;;
20140;SDS011;10231;47.702;9.826;2024-02-23T03:35:51;1.50;;;0.60;;
20140;SDS011;10231;47.702;9.826;2024-02-23T03:38:16;1.80;;;1.03;;
20140;SDS011;10231;47.702;9.826;2024-02-23T03:40:42;0.60;;;0.40;;
20140;SDS011;10231;47.702;9.826;2024-02-23T03:43:07;1.07;;;0.40;;
20140;SDS011;10231;47.702;9.826;2024-02-23T03:45:33;0.43;;;0.30;;
20140;SDS011;10231;47.702;9.826;2024-02-23T03:47:59;0.83;;;0.20;;
20140;SDS011;10231;47.702;9.826;2024-02-23T03:50:25;0.70;;;0.43;;
20140;SDS011;10231;47.702;9.826;2024-02-23T03:52:50;0.67;;;0.67;;
20140;SDS011;10231;47.702;9.826;2024-02-23T03:55:16;0.93;;;0.30;;
20140;SDS011;10231;47.702;9.826;2024-02-23T03:57:41;0.30;;;0.30;;
20140;SDS011;10231;47.702;9.826;2024-02-23T04:00:07;0.93;;;0.30;;
20140;SDS011;10231;47.702;9.826;2024-02-23T04:02:34;0.57;;;0.40;;
20140;SDS011;10231;47.702;9.826;2024-02-23T04:04:59;0.60;;;0.30;;
20140;SDS011;10231;47.702;9.826;2024-02-23T04:07:25;0.20;;;0.20;;
20140;SDS011;10231;47.702;9.826;2024-02-23T04:09:51;0.30;;;0.30;;
20140;SDS011;10231;47.702;9.826;2024-02-23T04:12:20;0.47;;;0.30;;
20140;SDS011;10231;47.702;9.826;2024-02-23T04:14:46;0.30;;;0.30;;
20140;SDS011;10231;47.702;9.826;2024-02-23T04:17:12;0.97;;;0.40;;
20140;SDS011;10231;47.702;9.826;2024-02-23T04:19:37;0.50;;;0.33;;
20140;SDS011;10231;47.702;9.826;2024-02-23T04:22:06;0.30;;;0.30;;
20140;SDS011;10231;47.702;9.826;2024-02-23T04:24:34;3.30;;;0.53;;
20140;SDS011;10231;47.702;9.826;2024-02-23T04:27:04;0.20;;;0.20;;
20140;SDS011;10231;47.702;9.826;2024-02-23T04:29:30;0.30;;;0.30;;
20140;SDS011;10231;47.702;9.826;2024-02-23T04:31:57;0.30;;;0.30;;
20140;SDS011;10231;47.702;9.826;2024-02-23T04:34:22;0.70;;;0.30;;
20140;SDS011;10231;47.702;9.826;2024-02-23T04:36:48;1.27;;;0.40;;
20140;SDS011;10231;47.702;9.826;2024-02-23T04:39:14;0.60;;;0.60;;
20140;SDS011;10231;47.702;9.826;2024-02-23T04:41:39;1.00;;;1.00;;
20140;SDS011;10231;47.702;9.826;2024-02-23T04:44:05;0.83;;;0.80;;
20140;SDS011;10231;47.702;9.826;2024-02-23T04:46:31;1.67;;;0.40;;
20140;SDS011;10231;47.702;9.826;2024-02-23T04:48:57;0.47;;;0.47;;
20140;SDS011;10231;47.702;9.826;2024-02-23T04:51:22;0.90;;;0.40;;
20140;SDS011;10231;47.702;9.826;2024-02-23T04:53:48;0.43;;;0.30;;
20140;SDS011;10231;47.702;9.826;2024-02-23T04:56:14;0.67;;;0.30;;
20140;SDS011;10231;47.702;9.826;2024-02-23T04:58:40;0.67;;;0.67;;
20140;SDS011;10231;47.702;9.826;2024-02-23T05:01:07;1.03;;;0.30;;
20140;SDS011;10231;47.702;9.826;2024-02-23T05:03:33;0.87;;;0.50;;
20140;SDS011;10231;47.702;9.826;2024-02-23T05:05:59;1.10;;;0.40;;
20140;SDS011;10231;47.702;9.826;2024-02-23T05:08:24;1.73;;;0.30;;
20140;SDS011;10231;47.702;9.826;2024-02-23T05:10:52;1.03;;;0.40;;
20140;SDS011;10231;47.702;9.826;2024-02-23T05:13:18;1.30;;;1.20;;
20140;SDS011;10231;47.702;9.826;2024-02-23T05:15:43;1.40;;;0.40;;
20140;SDS011;10231;47.702;9.826;2024-02-23T05:18:09;0.40;;;0.30;;
20140;SDS011;10231;47.702;9.826;2024-02-23T05:20:34;0.30;;;0.30;;
20140;SDS011;10231;47.702;9.826;2024-02-23T05:23:00;0.77;;;0.30;;
20140;SDS011;10231;47.702;9.826;2024-02-23T05:25:25;0.47;;;0.30;;
20140;SDS011;10231;47.702;9.826;2024-02-23T05:27:52;0.80;;;0.40;;
20140;SDS011;10231;47.702;9.826;2024-02-23T05:30:17;0.70;;;0.30;;
20140;SDS011;10231;47.702;9.826;2024-02-23T05:32:43;1.13;;;0.30;;
20140;SDS011;10231;47.702;9.826;2024-02-23T05:35:08;0.43;;;0.30;;
20140;SDS011;10231;47.702;9.826;2024-02-23T05:37:35;0.40;;;0.40;;
20140;SDS011;10231;47.702;9.826;2024-02-23T05:40:02;2.10;;;0.60;;
20140;SDS011;10231;47.702;9.826;2024-02-23T05:42:31;0.87;;;0.40;;
20140;SDS011;10231;47.702;9.826;2024-02-23T05:44:57;0.30;;;0.30;;
20140;SDS011;10231;47.702;9.826;2024-02-23T05:47:23;1.23;;;0.50;;
20140;SDS011;10231;47.702;9.826;2024-02-23T05:49:49;0.47;;;0.47;;
20140;SDS011;10231;47.702;9.826;2024-02-23T05:52:15;0.60;;;0.57;;
20140;SDS011;10231;47.702;9.826;2024-02-23T05:54:41;1.53;;;0.47;;
20140;SDS011;10231;47.702;9.826;2024-02-23T05:57:06;1.87;;;0.50;;
20140;SDS011;10231;47.702;9.826;2024-02-23T05:59:32;0.30;;;0.30;;
20140;SDS011;10231;47.702;9.826;2024-02-23T06:01:57;1.93;;;0.40;;
20140;SDS011;10231;47.702;9.826;2024-02-23T06:04:23;0.40;;;0.33;;
20140;SDS011;10231;47.702;9.826;2024-02-23T06:06:49;1.20;;;0.30;;
20140;SDS011;10231;47.702;9.826;2024-02-23T06:09:14;0.50;;;0.40;;
20140;SDS011;10231;47.702;9.826;2024-02-23T06:11:40;0.40;;;0.40;;
20140;SDS011;10231;47.702;9.826;2024-02-23T06:14:07;0.63;;;0.50;;
20140;SDS011;10231;47.702;9.826;2024-02-23T06:16:33;0.73;;;0.50;;
20140;SDS011;10231;47.702;9.826;2024-02-23T06:18:58;0.40;;;0.40;;
20140;SDS011;10231;47.702;9.826;2024-02-23T06:21:24;0.50;;;0.50;;
20140;SDS011;10231;47.702;9.826;2024-02-23T06:23:50;0.70;;;0.40;;
20140;SDS011;10231;47.702;9.826;2024-02-23T06:26:15;1.30;;;0.50;;
20140;SDS011;10231;47.702;9.826;2024-02-23T06:28:41;0.40;;;0.40;;
20140;SDS011;10231;47.702;9.826;2024-02-23T06:31:08;0.50;;;0.50;;
20140;SDS011;10231;47.702;9.826;2024-02-23T06:33:34;0.30;;;0.30;;
20140;SDS011;10231;47.702;9.826;2024-02-23T06:35:59;0.93;;;0.67;;
20140;SDS011;10231;47.702;9.826;2024-02-23T06:38:25;1.07;;;0.50;;
20140;SDS011;10231;47.702;9.826;2024-02-23T06:40:51;0.63;;;0.50;;
20140;SDS011;10231;47.702;9.826;2024-02-23T06:43:17;0.80;;;0.40;;
20140;SDS011;10231;47.702;9.826;2024-02-23T06:45:43;0.50;;;0.50;;
20140;SDS011;10231;47.702;9.826;2024-02-23T06:48:09;1.00;;;0.40;;
20140;SDS011;10231;47.702;9.826;2024-02-23T06:50:35;0.70;;;0.60;;
20140;SDS011;10231;47.702;9.826;2024-02-23T06:53:01;1.27;;;0.50;;
20140;SDS011;10231;47.702;9.826;2024-02-23T06:55:27;1.60;;;1.40;;
20140;SDS011;10231;47.702;9.826;2024-02-23T06:57:53;1.37;;;0.70;;
20140;SDS011;10231;47.702;9.826;2024-02-23T07:00:20;1.20;;;0.70;;
20140;SDS011;10231;47.702;9.826;2024-02-23T07:02:46;2.30;;;0.70;;
20140;SDS011;10231;47.702;9.826;2024-02-23T07:05:12;1.00;;;0.90;;
20140;SDS011;10231;47.702;9.826;2024-02-23T07:07:38;1.20;;;0.70;;
20140;SDS011;10231;47.702;9.826;2024-02-23T07:10:05;0.63;;;0.60;;
20140;SDS011;10231;47.702;9.826;2024-02-23T07:12:31;1.77;;;1.10;;
20140;SDS011;10231;47.702;9.826;2024-02-23T07:14:56;1.50;;;0.90;;
20140;SDS011;10231;47.702;9.826;2024-02-23T07:17:22;0.73;;;0.73;;
20140;SDS011;10231;47.702;9.826;2024-02-23T07:19:48;1.40;;;1.40;;
20140;SDS011;10231;47.702;9.826;2024-02-23T07:22:15;1.03;;;1.00;;
20140;SDS011;10231;47.702;9.826;2024-02-23T07:24:42;0.80;;;0.77;;
20140;SDS011;10231;47.702;9.826;2024-02-23T07:27:08;4.53;;;1.10;;
20140;SDS011;10231;47.702;9.826;2024-02-23T07:29:34;1.47;;;0.80;;
20140;SDS011;10231;47.702;9.826;2024-02-23T07:32:00;1.20;;;0.90;;
20140;SDS011;10231;47.702;9.826;2024-02-23T07:34:25;1.30;;;0.83;;
20140;SDS011;10231;47.702;9.826;2024-02-23T07:36:51;0.97;;;0.93;;
20140;SDS011;10231;47.702;9.826;2024-02-23T07:39:17;0.70;;;0.70;;
20140;SDS011;10231;47.702;9.826;2024-02-23T07:41:43;1.67;;;0.90;;
20140;SDS011;10231;47.702;9.826;2024-02-23T07:44:09;4.20;;;3.10;;
20140;SDS011;10231;47.702;9.826;2024-02-23T07:46:34;2.87;;;1.77;;
20140;SDS011;10231;47.702;9.826;2024-02-23T07:49:00;1.70;;;1.60;;
20140;SDS011;10231;47.702;9.826;2024-02-23T07:51:25;6.67;;;4.33;;
20140;SDS011;10231;47.702;9.826;2024-02-23T07:53:51;9.27;;;5.50;;
20140;SDS011;10231;47.702;9.826;2024-02-23T07:56:16;1.50;;;1.40;;
20140;SDS011;10231;47.702;9.826;2024-02-23T07:58:42;1.30;;;0.87;;
20140;SDS011;10231;47.702;9.826;2024-02-23T08:01:08;2.00;;;1.00;;
20140;SDS011;10231;47.702;9.826;2024-02-23T08:03:33;0.70;;;0.70;;
20140;SDS011;10231;47.702;9.826;2024-02-23T08:05:59;1.03;;;0.80;;
20140;SDS011;10231;47.702;9.826;2024-02-23T08:08:25;0.80;;;0.80;;
20140;SDS011;10231;47.702;9.826;2024-02-23T08:10:52;1.53;;;0.77;;
20140;SDS011;10231;47.702;9.826;2024-02-23T08:13:18;1.00;;;0.83;;
20140;SDS011;10231;47.702;9.826;2024-02-23T08:15:44;0.80;;;0.80;;
20140;SDS011;10231;47.702;9.826;2024-02-23T08:18:09;1.17;;;0.77;;
20140;SDS011;10231;47.702;9.826;2024-02-23T08:20:35;1.30;;;0.67;;
20140;SDS011;10231;47.702;9.826;2024-02-23T08:23:01;1.10;;;1.00;;
20140;SDS011;10231;47.702;9.826;2024-02-23T08:25:27;1.73;;;1.03;;
20140;SDS011;10231;47.702;9.826;2024-02-23T08:27:54;1.00;;;0.90;;
20140;SDS011;10231;47.702;9.826;2024-02-23T08:30:21;1.63;;;0.93;;
20140;SDS011;10231;47.702;9.826;2024-02-23T08:32:46;0.70;;;0.70;;
20140;SDS011;10231;47.702;9.826;2024-02-23T08:35:12;0.60;;;0.50;;
20140;SDS011;10231;47.702;9.826;2024-02-23T08:37:38;0.67;;;0.50;;
20140;SDS011;10231;47.702;9.826;2024-02-23T08:40:04;2.63;;;0.70;;
20140;SDS011;10231;47.702;9.826;2024-02-23T08:42:31;0.63;;;0.63;;
20140;SDS011;10231;47.702;9.826;2024-02-23T08:44:57;0.73;;;0.73;;
20140;SDS011;10231;47.702;9.826;2024-02-23T08:47:22;1.33;;;0.73;;
20140;SDS011;10231;47.702;9.826;2024-02-23T08:49:48;0.60;;;0.60;;
20140;SDS011;10231;47.702;9.826;2024-02-23T08:52:13;0.70;;;0.70;;
20140;SDS011;10231;47.702;9.826;2024-02-23T08:54:39;1.60;;;0.90;;
20140;SDS011;10231;47.702;9.826;2024-02-23T08:57:04;1.17;;;1.10;;
20140;SDS011;10231;47.702;9.826;2024-02-23T08:59:30;1.60;;;1.00;;
20140;SDS011;10231;47.702;9.826;2024-02-23T09:01:55;1.43;;;1.37;;
20140;SDS011;10231;47.702;9.826;2024-02-23T09:04:21;1.07;;;1.00;;
20140;SDS011;10231;47.702;9.826;2024-02-23T09:06:47;2.10;;;0.80;;
20140;SDS011;10231;47.702;9.826;2024-02-23T09:09:15;0.83;;;0.83;;
20140;SDS011;10231;47.702;9.826;2024-02-23T09:11:40;1.00;;;0.80;;
20140;SDS011;10231;47.702;9.826;2024-02-23T09:14:06;1.10;;;1.10;;
20140;SDS011;10231;47.702;9.826;2024-02-23T09:16:31;0.73;;;0.73;;
20140;SDS011;10231;47.702;9.826;2024-02-23T09:18:57;2.07;;;0.80;;
20140;SDS011;10231;47.702;9.826;2024-02-23T09:21:22;0.70;;;0.70;;
20140;SDS011;10231;47.702;9.826;2024-02-23T09:23:49;0.80;;;0.60;;
20140;SDS011;10231;47.702;9.826;2024-02-23T09:26:14;0.83;;;0.80;;
20140;SDS011;10231;47.702;9.826;2024-02-23T09:28:41;1.63;;;0.93;;
20140;SDS011;10231;47.702;9.826;2024-02-23T09:31:06;1.23;;;1.03;;
20140;SDS011;10231;47.702;9.826;2024-02-23T09:33:32;1.30;;;1.00;;
20140;SDS011;10231;47.702;9.826;2024-02-23T09:35:58;0.73;;;0.73;;
20140;SDS011;10231;47.702;9.826;2024-02-23T09:38:24;0.90;;;0.90;;
20140;SDS011;10231;47.702;9.826;2024-02-23T09:40:50;1.20;;;0.77;;
20140;SDS011;10231;47.702;9.826;2024-02-23T09:43:16;1.10;;;1.10;;
20140;SDS011;10231;47.702;9.826;2024-02-23T09:45:42;0.73;;;0.73;;
20140;SDS011;10231;47.702;9.826;2024-02-23T09:48:10;1.07;;;1.07;;
20140;SDS011;10231;47.702;9.826;2024-02-23T09:50:39;1.63;;;0.90;;
20140;SDS011;10231;47.702;9.826;2024-02-23T09:53:07;0.80;;;0.80;;
20140;SDS011;10231;47.702;9.826;2024-02-23T09:55:35;2.50;;;0.67;;
20140;SDS011;10231;47.702;9.826;2024-02-23T09:58:00;2.20;;;1.10;;
20140;SDS011;10231;47.702;9.826;2024-02-23T10:00:28;1.63;;;0.87;;
20140;SDS011;10231;47.702;9.826;2024-02-23T10:02:54;0.80;;;0.77;;
20140;SDS011;10231;47.702;9.826;2024-02-23T10:05:23;2.00;;;0.73;;
20140;SDS011;10231;47.702;9.826;2024-02-23T10:07:54;1.40;;;1.00;;
20140;SDS011;10231;47.702;9.826;2024-02-23T10:10:29;1.83;;;0.93;;
20140;SDS011;10231;47.702;9.826;2024-02-23T10:12:56;1.00;;;1.00;;
20140;SDS011;10231;47.702;9.826;2024-02-23T10:15:22;0.70;;;0.70;;
20140;SDS011;10231;47.702;9.826;2024-02-23T10:17:48;1.17;;;1.07;;
20140;SDS011;10231;47.702;9.826;2024-02-23T10:20:13;1.03;;;1.00;;
20140;SDS011;10231;47.702;9.826;2024-02-23T10:22:39;0.90;;;0.90;;
20140;SDS011;10231;47.702;9.826;2024-02-23T10:25:04;1.17;;;0.97;;
20140;SDS011;10231;47.702;9.826;2024-02-23T10:27:31;1.80;;;1.20;;
20140;SDS011;10231;47.702;9.826;2024-02-23T10:29:56;4.03;;;1.30;;
20140;SDS011;10231;47.702;9.826;2024-02-23T10:32:22;1.23;;;1.00;;
20140;SDS011;10231;47.702;9.826;2024-02-23T10:34:49;0.97;;;0.93;;
20140;SDS011;10231;47.702;9.826;2024-02-23T10:37:17;1.17;;;0.70;;
20140;SDS011;10231;47.702;9.826;2024-02-23T10:39:43;1.50;;;0.80;;
20140;SDS011;10231;47.702;9.826;2024-02-23T10:42:10;0.67;;;0.67;;
20140;SDS011;10231;47.702;9.826;2024-02-23T10:44:37;1.43;;;0.73;;
20140;SDS011;10231;47.702;9.826;2024-02-23T10:47:05;1.03;;;0.80;;
20140;SDS011;10231;47.702;9.826;2024-02-23T10:49:32;1.33;;;0.90;;
20140;SDS011;10231;47.702;9.826;2024-02-23T10:51:58;2.67;;;0.70;;
20140;SDS011;10231;47.702;9.826;2024-02-23T10:54:24;1.93;;;0.80;;
20140;SDS011;10231;47.702;9.826;2024-02-23T10:56:51;1.30;;;0.73;;
20140;SDS011;10231;47.702;9.826;2024-02-23T10:59:18;2.43;;;0.60;;
20140;SDS011;10231;47.702;9.826;2024-02-23T11:01:45;1.27;;;0.70;;
20140;SDS011;10231;47.702;9.826;2024-02-23T11:04:16;4.43;;;2.17;;
20140;SDS011;10231;47.702;9.826;2024-02-23T11:06:48;1.53;;;0.90;;
20140;SDS011;10231;47.702;9.826;2024-02-23T11:09:20;0.93;;;0.70;;
20140;SDS011;10231;47.702;9.826;2024-02-23T11:11:56;2.53;;;0.77;;
20140;SDS011;10231;47.702;9.826;2024-02-23T11:14:32;1.60;;;0.90;;
20140;SDS011;10231;47.702;9.826;2024-02-23T11:17:00;1.47;;;0.73;;
20140;SDS011;10231;47.702;9.826;2024-02-23T11:19:36;1.57;;;0.80;;
20140;SDS011;10231;47.702;9.826;2024-02-23T11:22:04;0.60;;;0.60;;
20140;SDS011;10231;47.702;9.826;2024-02-23T11:24:30;2.13;;;0.83;;
20140;SDS011;10231;47.702;9.826;2024-02-23T11:27:00;2.73;;;0.90;;
20140;SDS011;10231;47.702;9.826;2024-02-23T11:29:33;0.67;;;0.67;;
20140;SDS011;10231;47.702;9.826;2024-02-23T11:31:59;2.87;;;0.90;;
20140;SDS011;10231;47.702;9.826;2024-02-23T11:34:28;1.33;;;0.70;;
20140;SDS011;10231;47.702;9.826;2024-02-23T11:36:55;1.37;;;0.60;;
20140;SDS011;10231;47.702;9.826;2024-02-23T11:39:21;2.63;;;0.80;;
20140;SDS011;10231;47.702;9.826;2024-02-23T11:41:48;2.53;;;0.90;;
20140;SDS011;10231;47.702;9.826;2024-02-23T11:44:14;4.20;;;0.80;;
20140;SDS011;10231;47.702;9.826;2024-02-23T11:46:42;14.23;;;1.47;;
20140;SDS011;10231;47.702;9.826;2024-02-23T11:49:11;5.70;;;1.00;;
20140;SDS011;10231;47.702;9.826;2024-02-23T11:51:37;0.77;;;0.73;;
20140;SDS011;10231;47.702;9.826;2024-02-23T11:54:03;1.93;;;0.87;;
20140;SDS011;10231;47.702;9.826;2024-02-23T11:56:29;1.23;;;0.77;;
20140;SDS011;10231;47.702;9.826;2024-02-23T11:58:55;1.17;;;0.83;;
20140;SDS011;10231;47.702;9.826;2024-02-23T12:01:21;2.30;;;1.00;;
20140;SDS011;10231;47.702;9.826;2024-02-23T12:03:46;0.97;;;0.80;;
20140;SDS011;10231;47.702;9.826;2024-02-23T12:06:13;1.40;;;0.80;;
20140;SDS011;10231;47.702;9.826;2024-02-23T12:08:42;1.70;;;0.70;;
20140;SDS011;10231;47.702;9.826;2024-02-23T12:11:10;0.67;;;0.67;;
20140;SDS011;10231;47.702;9.826;2024-02-23T12:13:36;1.10;;;0.73;;
20140;SDS011;10231;47.702;9.826;2024-02-23T12:16:02;0.87;;;0.70;;
20140;SDS011;10231;47.702;9.826;2024-02-23T12:18:28;0.87;;;0.60;;
20140;SDS011;10231;47.702;9.826;2024-02-23T12:20:58;1.93;;;1.27;;
20140;SDS011;10231;47.702;9.826;2024-02-23T12:23:42;2.33;;;1.20;;
20140;SDS011;10231;47.702;9.826;2024-02-23T12:26:12;1.47;;;1.30;;
20140;SDS011;10231;47.702;9.826;2024-02-23T12:28:39;1.30;;;1.17;;
20140;SDS011;10231;47.702;9.826;2024-02-23T12:31:05;2.93;;;1.27;;
20140;SDS011;10231;47.702;9.826;2024-02-23T12:33:35;1.27;;;0.93;;
20140;SDS011;10231;47.702;9.826;2024-02-23T12:36:03;0.90;;;0.90;;
20140;SDS011;10231;47.702;9.826;2024-02-23T12:38:29;2.20;;;1.00;;
20140;SDS011;10231;47.702;9.826;2024-02-23T12:40:55;2.40;;;1.17;;
20140;SDS011;10231;47.702;9.826;2024-02-23T12:43:21;0.73;;;0.73;;
20140;SDS011;10231;47.702;9.826;2024-02-23T12:45:49;1.33;;;0.87;;
20140;SDS011;10231;47.702;9.826;2024-02-23T12:48:23;1.43;;;0.80;;
20140;SDS011;10231;47.702;9.826;2024-02-23T12:50:49;1.73;;;0.93;;
20140;SDS011;10231;47.702;9.826;2024-02-23T12:56:08;1.63;;;0.90;;
20140;SDS011;10231;47.702;9.826;2024-02-23T12:58:36;1.80;;;1.00;;
20140;SDS011;10231;47.702;9.826;2024-02-23T13:01:03;1.17;;;0.60;;
20140;SDS011;10231;47.702;9.826;2024-02-23T13:03:29;1.83;;;0.80;;
20140;SDS011;10231;47.702;9.826;2024-02-23T13:05:55;2.23;;;0.90;;
20140;SDS011;10231;47.702;9.826;2024-02-23T13:08:21;1.13;;;1.00;;
20140;SDS011;10231;47.702;9.826;2024-02-23T13:10:47;1.80;;;1.13;;
20140;SDS011;10231;47.702;9.826;2024-02-23T13:13:13;1.70;;;1.10;;
20140;SDS011;10231;47.702;9.826;2024-02-23T13:19:01;1.03;;;0.87;;
20140;SDS011;10231;47.702;9.826;2024-02-23T13:21:27;2.40;;;0.70;;
20140;SDS011;10231;47.702;9.826;2024-02-23T13:23:53;3.50;;;1.23;;
20140;SDS011;10231;47.702;9.826;2024-02-23T13:26:18;2.63;;;0.60;;
20140;SDS011;10231;47.702;9.826;2024-02-23T13:28:44;0.80;;;0.67;;
20140;SDS011;10231;47.702;9.826;2024-02-23T13:31:10;1.43;;;0.90;;
20140;SDS011;10231;47.702;9.826;2024-02-23T13:33:35;2.97;;;1.27;;
20140;SDS011;10231;47.702;9.826;2024-02-23T13:36:01;1.80;;;0.87;;
20140;SDS011;10231;47.702;9.826;2024-02-23T13:38:27;1.43;;;0.97;;
20140;SDS011;10231;47.702;9.826;2024-02-23T13:40:52;1.00;;;0.80;;
20140;SDS011;10231;47.702;9.826;2024-02-23T13:43:18;0.90;;;0.80;;
20140;SDS011;10231;47.702;9.826;2024-02-23T13:45:50;2.50;;;1.00;;
20140;SDS011;10231;47.702;9.826;2024-02-23T13:48:17;2.87;;;1.07;;
20140;SDS011;10231;47.702;9.826;2024-02-23T13:50:46;1.90;;;1.00;;
20140;SDS011;10231;47.702;9.826;2024-02-23T13:53:12;2.37;;;0.77;;
20140;SDS011;10231;47.702;9.826;2024-02-23T13:55:38;5.50;;;1.03;;
20140;SDS011;10231;47.702;9.826;2024-02-23T13:58:04;3.27;;;0.70;;
20140;SDS011;10231;47.702;9.826;2024-02-23T14:00:30;1.33;;;0.97;;
20140;SDS011;10231;47.702;9.826;2024-02-23T14:02:55;1.13;;;0.60;;
20140;SDS011;10231;47.702;9.826;2024-02-23T14:05:21;2.97;;;0.90;;
20140;SDS011;10231;47.702;9.826;2024-02-23T14:07:47;3.13;;;0.70;;
20140;SDS011;10231;47.702;9.826;2024-02-23T14:10:13;2.37;;;0.80;;
20140;SDS011;10231;47.702;9.826;2024-02-23T14:12:38;2.57;;;0.50;;
20140;SDS011;10231;47.702;9.826;2024-02-23T14:15:05;1.73;;;0.67;;
20140;SDS011;10231;47.702;9.826;2024-02-23T14:17:31;1.07;;;0.67;;
20140;SDS011;10231;47.702;9.826;2024-02-23T14:19:57;3.53;;;1.00;;
20140;SDS011;10231;47.702;9.826;2024-02-23T14:22:22;1.03;;;0.50;;
20140;SDS011;10231;47.702;9.826;2024-02-23T14:24:48;1.37;;;0.67;;
20140;SDS011;10231;47.702;9.826;2024-02-23T14:27:13;2.10;;;0.90;;
20140;SDS011;10231;47.702;9.826;2024-02-23T14:29:39;0.73;;;0.73;;
20140;SDS011;10231;47.702;9.826;2024-02-23T14:32:04;0.83;;;0.60;;
20140;SDS011;10231;47.702;9.826;2024-02-23T14:34:30;1.83;;;0.47;;
20140;SDS011;10231;47.702;9.826;2024-02-23T14:36:58;0.70;;;0.50;;
20140;SDS011;10231;47.702;9.826;2024-02-23T14:39:23;1.43;;;0.70;;
20140;SDS011;10231;47.702;9.826;2024-02-23T14:41:49;2.40;;;0.93;;
20140;SDS011;10231;47.702;9.826;2024-02-23T14:44:14;0.60;;;0.60;;
20140;SDS011;10231;47.702;9.826;2024-02-23T14:46:40;1.93;;;1.33;;
20140;SDS011;10231;47.702;9.826;2024-02-23T14:49:06;2.27;;;1.07;;